sensor_id;sensor_type;location;lat;lon;timestamp;P1;durP1;ratioP1;P2;durP2;ratioP2
47589;SDS011;33316;52.298;9.056;2022-12-18T00:01:27;7.03;;;3.25;;
47589;SDS011;33316;52.298;9.056;2022-12-18T00:03:56;4.57;;;2.95;;
47589;SDS011;33316;52.298;9.056;2022-12-18T00:06:23;7.35;;;3.50;;
47589;SDS011;33316;52.298;9.056;2022-12-18T00:08:52;5.80;;;2.95;;
47589;SDS011;33316;52.298;9.056;2022-12-18T00:11:20;4.50;;;2.80;;
47589;SDS011;33316;52.298;9.056;2022-12-18T00:13:49;5.55;;;2.92;;
47589;SDS011;33316;52.298;9.056;2022-12-18T00:16:18;6.03;;;3.15;;
47589;SDS011;33316;52.298;9.056;2022-12-18T00:18:46;5.78;;;3.10;;
47589;SDS011;33316;52.298;9.056;2022-12-18T00:21:13;7.57;;;3.60;;
47589;SDS011;33316;52.298;9.056;2022-12-18T00:23:41;6.88;;;3.35;;
47589;SDS011;33316;52.298;9.056;2022-12-18T00:26:10;7.88;;;3.13;;
47589;SDS011;33316;52.298;9.056;2022-12-18T00:28:43;7.38;;;3.33;;
47589;SDS011;33316;52.298;9.056;2022-12-18T00:31:13;6.03;;;2.90;;
47589;SDS011;33316;52.298;9.056;2022-12-18T00:33:41;5.30;;;2.80;;
47589;SDS011;33316;52.298;9.056;2022-12-18T00:36:09;4.70;;;2.72;;
47589;SDS011;33316;52.298;9.056;2022-12-18T00:38:38;6.00;;;2.90;;
47589;SDS011;33316;52.298;9.056;2022-12-18T00:41:06;4.10;;;2.53;;
47589;SDS011;33316;52.298;9.056;2022-12-18T00:43:33;4.75;;;2.95;;
47589;SDS011;33316;52.298;9.056;2022-12-18T00:45:59;4.32;;;2.72;;
47589;SDS011;33316;52.298;9.056;2022-12-18T00:48:27;4.70;;;2.65;;
47589;SDS011;33316;52.298;9.056;2022-12-18T00:50:55;5.38;;;3.15;;
47589;SDS011;33316;52.298;9.056;2022-12-18T00:53:22;4.65;;;2.55;;
47589;SDS011;33316;52.298;9.056;2022-12-18T00:55:49;5.03;;;2.92;;
47589;SDS011;33316;52.298;9.056;2022-12-18T00:58:16;4.82;;;2.75;;
47589;SDS011;33316;52.298;9.056;2022-12-18T01:00:44;5.55;;;2.70;;
47589;SDS011;33316;52.298;9.056;2022-12-18T01:03:12;4.20;;;2.50;;
47589;SDS011;33316;52.298;9.056;2022-12-18T01:05:41;5.22;;;2.40;;
47589;SDS011;33316;52.298;9.056;2022-12-18T01:08:08;5.40;;;2.53;;
47589;SDS011;33316;52.298;9.056;2022-12-18T01:10:35;5.55;;;2.70;;
47589;SDS011;33316;52.298;9.056;2022-12-18T01:13:02;4.65;;;2.20;;
47589;SDS011;33316;52.298;9.056;2022-12-18T01:15:29;3.58;;;2.53;;
47589;SDS011;33316;52.298;9.056;2022-12-18T01:17:56;4.90;;;2.65;;
47589;SDS011;33316;52.298;9.056;2022-12-18T01:20:22;6.32;;;2.80;;
47589;SDS011;33316;52.298;9.056;2022-12-18T01:22:51;6.70;;;3.08;;
47589;SDS011;33316;52.298;9.056;2022-12-18T01:25:17;5.28;;;2.63;;
47589;SDS011;33316;52.298;9.056;2022-12-18T01:27:44;4.75;;;2.47;;
47589;SDS011;33316;52.298;9.056;2022-12-18T01:30:11;5.10;;;2.78;;
47589;SDS011;33316;52.298;9.056;2022-12-18T01:32:38;4.75;;;2.88;;
47589;SDS011;33316;52.298;9.056;2022-12-18T01:35:05;6.00;;;2.95;;
47589;SDS011;33316;52.298;9.056;2022-12-18T01:37:33;5.35;;;2.85;;
47589;SDS011;33316;52.298;9.056;2022-12-18T01:40:01;4.75;;;2.65;;
47589;SDS011;33316;52.298;9.056;2022-12-18T01:42:28;3.95;;;2.20;;
47589;SDS011;33316;52.298;9.056;2022-12-18T01:45:00;4.18;;;2.25;;
47589;SDS011;33316;52.298;9.056;2022-12-18T01:47:30;4.43;;;2.25;;
47589;SDS011;33316;52.298;9.056;2022-12-18T01:50:01;4.18;;;2.30;;
47589;SDS011;33316;52.298;9.056;2022-12-18T01:52:30;4.07;;;2.50;;
47589;SDS011;33316;52.298;9.056;2022-12-18T01:54:59;5.65;;;2.38;;
47589;SDS011;33316;52.298;9.056;2022-12-18T01:57:28;10.77;;;2.80;;
47589;SDS011;33316;52.298;9.056;2022-12-18T01:59:57;5.85;;;2.83;;
47589;SDS011;33316;52.298;9.056;2022-12-18T02:02:26;5.15;;;2.40;;
47589;SDS011;33316;52.298;9.056;2022-12-18T02:04:54;3.47;;;2.30;;
47589;SDS011;33316;52.298;9.056;2022-12-18T02:07:23;3.97;;;2.40;;
47589;SDS011;33316;52.298;9.056;2022-12-18T02:09:58;3.97;;;2.30;;
47589;SDS011;33316;52.298;9.056;2022-12-18T02:12:33;4.95;;;2.25;;
47589;SDS011;33316;52.298;9.056;2022-12-18T02:15:09;4.68;;;2.42;;
47589;SDS011;33316;52.298;9.056;2022-12-18T02:20:12;3.85;;;2.47;;
47589;SDS011;33316;52.298;9.056;2022-12-18T02:22:44;3.25;;;2.30;;
47589;SDS011;33316;52.298;9.056;2022-12-18T02:25:22;4.40;;;2.72;;
47589;SDS011;33316;52.298;9.056;2022-12-18T02:27:57;5.43;;;2.90;;
47589;SDS011;33316;52.298;9.056;2022-12-18T02:30:27;4.13;;;2.45;;
47589;SDS011;33316;52.298;9.056;2022-12-18T02:32:59;4.32;;;2.47;;
47589;SDS011;33316;52.298;9.056;2022-12-18T02:35:30;5.35;;;2.70;;
47589;SDS011;33316;52.298;9.056;2022-12-18T02:37:57;6.35;;;2.97;;
47589;SDS011;33316;52.298;9.056;2022-12-18T02:40:26;3.78;;;2.47;;
47589;SDS011;33316;52.298;9.056;2022-12-18T02:42:54;6.93;;;2.83;;
47589;SDS011;33316;52.298;9.056;2022-12-18T02:45:22;4.50;;;2.75;;
47589;SDS011;33316;52.298;9.056;2022-12-18T02:47:49;3.70;;;2.33;;
47589;SDS011;33316;52.298;9.056;2022-12-18T02:50:18;3.22;;;2.28;;
47589;SDS011;33316;52.298;9.056;2022-12-18T02:52:53;3.83;;;2.42;;
47589;SDS011;33316;52.298;9.056;2022-12-18T02:55:29;5.03;;;2.88;;
47589;SDS011;33316;52.298;9.056;2022-12-18T02:58:10;6.78;;;3.10;;
47589;SDS011;33316;52.298;9.056;2022-12-18T03:00:44;7.20;;;3.95;;
47589;SDS011;33316;52.298;9.056;2022-12-18T03:03:18;8.70;;;4.78;;
47589;SDS011;33316;52.298;9.056;2022-12-18T03:05:50;5.90;;;3.78;;
47589;SDS011;33316;52.298;9.056;2022-12-18T03:08:20;7.20;;;4.20;;
47589;SDS011;33316;52.298;9.056;2022-12-18T03:10:51;5.78;;;3.45;;
47589;SDS011;33316;52.298;9.056;2022-12-18T03:13:23;7.25;;;3.10;;
47589;SDS011;33316;52.298;9.056;2022-12-18T03:15:55;8.02;;;3.65;;
47589;SDS011;33316;52.298;9.056;2022-12-18T03:18:25;5.60;;;3.25;;
47589;SDS011;33316;52.298;9.056;2022-12-18T03:20:56;8.02;;;4.03;;
47589;SDS011;33316;52.298;9.056;2022-12-18T03:23:27;7.57;;;3.85;;
47589;SDS011;33316;52.298;9.056;2022-12-18T03:25:59;8.52;;;4.00;;
47589;SDS011;33316;52.298;9.056;2022-12-18T03:28:29;6.20;;;3.47;;
47589;SDS011;33316;52.298;9.056;2022-12-18T03:31:01;6.05;;;3.15;;
47589;SDS011;33316;52.298;9.056;2022-12-18T03:33:32;4.38;;;2.65;;
47589;SDS011;33316;52.298;9.056;2022-12-18T03:36:03;4.30;;;2.78;;
47589;SDS011;33316;52.298;9.056;2022-12-18T03:38:30;5.72;;;2.97;;
47589;SDS011;33316;52.298;9.056;2022-12-18T03:40:58;5.63;;;2.95;;
47589;SDS011;33316;52.298;9.056;2022-12-18T03:43:34;6.18;;;3.00;;
47589;SDS011;33316;52.298;9.056;2022-12-18T03:46:08;5.70;;;2.83;;
47589;SDS011;33316;52.298;9.056;2022-12-18T03:48:43;5.20;;;2.90;;
47589;SDS011;33316;52.298;9.056;2022-12-18T03:51:15;5.75;;;3.28;;
47589;SDS011;33316;52.298;9.056;2022-12-18T03:56:15;4.95;;;2.63;;
47589;SDS011;33316;52.298;9.056;2022-12-18T03:58:43;4.25;;;2.95;;
47589;SDS011;33316;52.298;9.056;2022-12-18T04:01:13;6.65;;;3.10;;
47589;SDS011;33316;52.298;9.056;2022-12-18T04:03:42;3.47;;;2.50;;
47589;SDS011;33316;52.298;9.056;2022-12-18T04:06:12;5.93;;;3.10;;
47589;SDS011;33316;52.298;9.056;2022-12-18T04:08:41;7.18;;;2.70;;
47589;SDS011;33316;52.298;9.056;2022-12-18T04:11:08;4.40;;;2.80;;
47589;SDS011;33316;52.298;9.056;2022-12-18T04:13:36;5.13;;;2.60;;
47589;SDS011;33316;52.298;9.056;2022-12-18T04:16:04;6.95;;;3.17;;
47589;SDS011;33316;52.298;9.056;2022-12-18T04:18:33;4.32;;;2.65;;
47589;SDS011;33316;52.298;9.056;2022-12-18T04:21:01;4.80;;;2.70;;
47589;SDS011;33316;52.298;9.056;2022-12-18T04:23:28;4.47;;;2.75;;
47589;SDS011;33316;52.298;9.056;2022-12-18T04:25:55;5.50;;;2.90;;
47589;SDS011;33316;52.298;9.056;2022-12-18T04:28:22;5.88;;;3.13;;
47589;SDS011;33316;52.298;9.056;2022-12-18T04:30:49;4.47;;;2.80;;
47589;SDS011;33316;52.298;9.056;2022-12-18T04:33:15;6.68;;;3.25;;
47589;SDS011;33316;52.298;9.056;2022-12-18T04:35:44;6.72;;;2.65;;
47589;SDS011;33316;52.298;9.056;2022-12-18T04:38:11;5.05;;;2.83;;
47589;SDS011;33316;52.298;9.056;2022-12-18T04:40:38;4.40;;;2.92;;
47589;SDS011;33316;52.298;9.056;2022-12-18T04:43:05;5.85;;;2.92;;
47589;SDS011;33316;52.298;9.056;2022-12-18T04:45:32;5.03;;;3.20;;
47589;SDS011;33316;52.298;9.056;2022-12-18T04:47:59;6.70;;;3.45;;
47589;SDS011;33316;52.298;9.056;2022-12-18T04:50:26;7.32;;;3.55;;
47589;SDS011;33316;52.298;9.056;2022-12-18T04:52:55;5.05;;;2.95;;
47589;SDS011;33316;52.298;9.056;2022-12-18T04:55:22;5.95;;;3.40;;
47589;SDS011;33316;52.298;9.056;2022-12-18T04:57:50;5.65;;;3.15;;
47589;SDS011;33316;52.298;9.056;2022-12-18T05:00:17;7.88;;;3.45;;
47589;SDS011;33316;52.298;9.056;2022-12-18T05:02:44;6.82;;;3.65;;
47589;SDS011;33316;52.298;9.056;2022-12-18T05:05:11;5.47;;;3.40;;
47589;SDS011;33316;52.298;9.056;2022-12-18T05:07:38;5.18;;;2.88;;
47589;SDS011;33316;52.298;9.056;2022-12-18T05:10:07;7.60;;;4.07;;
47589;SDS011;33316;52.298;9.056;2022-12-18T05:12:34;6.20;;;3.35;;
47589;SDS011;33316;52.298;9.056;2022-12-18T05:15:22;6.35;;;3.40;;
47589;SDS011;33316;52.298;9.056;2022-12-18T05:17:49;6.53;;;3.05;;
47589;SDS011;33316;52.298;9.056;2022-12-18T05:20:15;7.45;;;3.60;;
47589;SDS011;33316;52.298;9.056;2022-12-18T05:22:43;6.65;;;4.05;;
47589;SDS011;33316;52.298;9.056;2022-12-18T05:25:11;7.57;;;3.85;;
47589;SDS011;33316;52.298;9.056;2022-12-18T05:27:38;5.80;;;3.33;;
47589;SDS011;33316;52.298;9.056;2022-12-18T05:30:05;6.15;;;3.55;;
47589;SDS011;33316;52.298;9.056;2022-12-18T05:32:33;4.50;;;2.92;;
47589;SDS011;33316;52.298;9.056;2022-12-18T05:35:00;7.32;;;3.33;;
47589;SDS011;33316;52.298;9.056;2022-12-18T05:37:27;7.80;;;3.78;;
47589;SDS011;33316;52.298;9.056;2022-12-18T05:39:53;5.43;;;3.30;;
47589;SDS011;33316;52.298;9.056;2022-12-18T05:42:22;6.97;;;3.80;;
47589;SDS011;33316;52.298;9.056;2022-12-18T05:44:49;5.65;;;3.42;;
47589;SDS011;33316;52.298;9.056;2022-12-18T05:47:16;5.28;;;3.40;;
47589;SDS011;33316;52.298;9.056;2022-12-18T05:49:43;6.40;;;3.15;;
47589;SDS011;33316;52.298;9.056;2022-12-18T05:52:10;7.07;;;3.60;;
47589;SDS011;33316;52.298;9.056;2022-12-18T05:54:36;6.63;;;3.33;;
47589;SDS011;33316;52.298;9.056;2022-12-18T05:57:04;6.30;;;3.10;;
47589;SDS011;33316;52.298;9.056;2022-12-18T05:59:32;6.25;;;3.45;;
47589;SDS011;33316;52.298;9.056;2022-12-18T06:01:59;6.07;;;3.20;;
47589;SDS011;33316;52.298;9.056;2022-12-18T06:04:26;5.65;;;3.10;;
47589;SDS011;33316;52.298;9.056;2022-12-18T06:06:53;5.22;;;3.13;;
47589;SDS011;33316;52.298;9.056;2022-12-18T06:09:20;4.35;;;2.83;;
47589;SDS011;33316;52.298;9.056;2022-12-18T06:11:47;5.22;;;2.97;;
47589;SDS011;33316;52.298;9.056;2022-12-18T06:14:14;4.72;;;2.83;;
47589;SDS011;33316;52.298;9.056;2022-12-18T06:16:43;4.40;;;3.20;;
47589;SDS011;33316;52.298;9.056;2022-12-18T06:19:12;6.80;;;3.60;;
47589;SDS011;33316;52.298;9.056;2022-12-18T06:21:40;7.35;;;3.80;;
47589;SDS011;33316;52.298;9.056;2022-12-18T06:24:07;7.55;;;4.28;;
47589;SDS011;33316;52.298;9.056;2022-12-18T06:26:36;7.00;;;3.95;;
47589;SDS011;33316;52.298;9.056;2022-12-18T06:29:03;5.65;;;3.10;;
47589;SDS011;33316;52.298;9.056;2022-12-18T06:31:30;6.85;;;3.70;;
47589;SDS011;33316;52.298;9.056;2022-12-18T06:33:59;7.93;;;4.00;;
47589;SDS011;33316;52.298;9.056;2022-12-18T06:36:29;6.18;;;3.30;;
47589;SDS011;33316;52.298;9.056;2022-12-18T06:38:56;5.10;;;2.95;;
47589;SDS011;33316;52.298;9.056;2022-12-18T06:41:23;5.05;;;3.22;;
47589;SDS011;33316;52.298;9.056;2022-12-18T06:43:50;6.07;;;3.13;;
47589;SDS011;33316;52.298;9.056;2022-12-18T06:46:17;5.72;;;3.15;;
47589;SDS011;33316;52.298;9.056;2022-12-18T06:48:46;5.60;;;3.05;;
47589;SDS011;33316;52.298;9.056;2022-12-18T06:51:16;4.93;;;3.05;;
47589;SDS011;33316;52.298;9.056;2022-12-18T06:53:44;4.68;;;2.65;;
47589;SDS011;33316;52.298;9.056;2022-12-18T06:56:11;4.32;;;2.85;;
47589;SDS011;33316;52.298;9.056;2022-12-18T06:58:38;3.85;;;2.60;;
47589;SDS011;33316;52.298;9.056;2022-12-18T07:01:06;5.38;;;3.15;;
47589;SDS011;33316;52.298;9.056;2022-12-18T07:03:34;5.78;;;3.03;;
47589;SDS011;33316;52.298;9.056;2022-12-18T07:06:02;4.70;;;2.63;;
47589;SDS011;33316;52.298;9.056;2022-12-18T07:08:30;7.32;;;3.70;;
47589;SDS011;33316;52.298;9.056;2022-12-18T07:10:58;6.28;;;3.20;;
47589;SDS011;33316;52.298;9.056;2022-12-18T07:13:24;5.70;;;3.10;;
47589;SDS011;33316;52.298;9.056;2022-12-18T07:15:51;4.63;;;2.70;;
47589;SDS011;33316;52.298;9.056;2022-12-18T07:18:18;4.55;;;2.83;;
47589;SDS011;33316;52.298;9.056;2022-12-18T07:20:45;6.90;;;3.40;;
47589;SDS011;33316;52.298;9.056;2022-12-18T07:23:12;7.43;;;3.60;;
47589;SDS011;33316;52.298;9.056;2022-12-18T07:25:40;7.00;;;3.53;;
47589;SDS011;33316;52.298;9.056;2022-12-18T07:28:07;5.88;;;3.15;;
47589;SDS011;33316;52.298;9.056;2022-12-18T07:30:36;6.70;;;3.13;;
47589;SDS011;33316;52.298;9.056;2022-12-18T07:33:03;6.35;;;2.92;;
47589;SDS011;33316;52.298;9.056;2022-12-18T07:35:30;4.32;;;3.08;;
47589;SDS011;33316;52.298;9.056;2022-12-18T07:37:58;6.95;;;3.40;;
47589;SDS011;33316;52.298;9.056;2022-12-18T07:40:28;4.37;;;2.63;;
47589;SDS011;33316;52.298;9.056;2022-12-18T07:42:56;5.88;;;3.10;;
47589;SDS011;33316;52.298;9.056;2022-12-18T07:45:23;5.82;;;2.80;;
47589;SDS011;33316;52.298;9.056;2022-12-18T07:47:50;4.68;;;2.80;;
47589;SDS011;33316;52.298;9.056;2022-12-18T07:50:16;5.18;;;3.08;;
47589;SDS011;33316;52.298;9.056;2022-12-18T07:52:43;5.82;;;3.47;;
47589;SDS011;33316;52.298;9.056;2022-12-18T07:55:10;8.25;;;3.30;;
47589;SDS011;33316;52.298;9.056;2022-12-18T07:57:37;3.72;;;2.45;;
47589;SDS011;33316;52.298;9.056;2022-12-18T08:00:06;5.07;;;3.10;;
47589;SDS011;33316;52.298;9.056;2022-12-18T08:02:33;4.93;;;2.97;;
47589;SDS011;33316;52.298;9.056;2022-12-18T08:05:00;4.97;;;2.72;;
47589;SDS011;33316;52.298;9.056;2022-12-18T08:07:27;4.80;;;2.80;;
47589;SDS011;33316;52.298;9.056;2022-12-18T08:09:54;6.18;;;3.33;;
47589;SDS011;33316;52.298;9.056;2022-12-18T08:12:21;6.68;;;3.45;;
47589;SDS011;33316;52.298;9.056;2022-12-18T08:14:48;4.85;;;2.92;;
47589;SDS011;33316;52.298;9.056;2022-12-18T08:17:16;4.53;;;2.60;;
47589;SDS011;33316;52.298;9.056;2022-12-18T08:19:43;5.70;;;2.85;;
47589;SDS011;33316;52.298;9.056;2022-12-18T08:22:10;4.85;;;3.28;;
47589;SDS011;33316;52.298;9.056;2022-12-18T08:24:39;5.63;;;3.25;;
47589;SDS011;33316;52.298;9.056;2022-12-18T08:27:05;4.22;;;2.60;;
47589;SDS011;33316;52.298;9.056;2022-12-18T08:29:32;5.18;;;3.17;;
47589;SDS011;33316;52.298;9.056;2022-12-18T08:31:59;4.65;;;2.97;;
47589;SDS011;33316;52.298;9.056;2022-12-18T08:34:28;7.60;;;3.33;;
47589;SDS011;33316;52.298;9.056;2022-12-18T08:36:54;6.05;;;2.72;;
47589;SDS011;33316;52.298;9.056;2022-12-18T08:39:21;5.40;;;3.00;;
47589;SDS011;33316;52.298;9.056;2022-12-18T08:41:48;6.70;;;3.50;;
47589;SDS011;33316;52.298;9.056;2022-12-18T08:44:29;4.38;;;2.75;;
47589;SDS011;33316;52.298;9.056;2022-12-18T08:47:05;5.57;;;2.70;;
47589;SDS011;33316;52.298;9.056;2022-12-18T08:49:34;7.60;;;3.00;;
47589;SDS011;33316;52.298;9.056;2022-12-18T08:52:01;4.65;;;2.70;;
47589;SDS011;33316;52.298;9.056;2022-12-18T08:54:28;3.22;;;2.25;;
47589;SDS011;33316;52.298;9.056;2022-12-18T08:56:55;4.82;;;2.63;;
47589;SDS011;33316;52.298;9.056;2022-12-18T08:59:22;5.35;;;2.60;;
47589;SDS011;33316;52.298;9.056;2022-12-18T09:01:49;5.43;;;2.83;;
47589;SDS011;33316;52.298;9.056;2022-12-18T09:04:16;4.93;;;2.58;;
47589;SDS011;33316;52.298;9.056;2022-12-18T09:06:44;6.38;;;2.67;;
47589;SDS011;33316;52.298;9.056;2022-12-18T09:09:11;4.85;;;2.50;;
47589;SDS011;33316;52.298;9.056;2022-12-18T09:11:38;4.43;;;2.30;;
47589;SDS011;33316;52.298;9.056;2022-12-18T09:14:06;7.00;;;3.47;;
47589;SDS011;33316;52.298;9.056;2022-12-18T09:16:33;4.85;;;2.60;;
47589;SDS011;33316;52.298;9.056;2022-12-18T09:19:01;6.72;;;3.63;;
47589;SDS011;33316;52.298;9.056;2022-12-18T09:21:29;6.32;;;3.05;;
47589;SDS011;33316;52.298;9.056;2022-12-18T09:23:59;5.88;;;3.47;;
47589;SDS011;33316;52.298;9.056;2022-12-18T09:26:26;4.85;;;3.25;;
47589;SDS011;33316;52.298;9.056;2022-12-18T09:28:53;4.90;;;3.40;;
47589;SDS011;33316;52.298;9.056;2022-12-18T09:31:21;4.75;;;3.00;;
47589;SDS011;33316;52.298;9.056;2022-12-18T09:33:49;4.80;;;2.70;;
47589;SDS011;33316;52.298;9.056;2022-12-18T09:36:17;5.75;;;2.83;;
47589;SDS011;33316;52.298;9.056;2022-12-18T09:38:44;5.35;;;3.08;;
47589;SDS011;33316;52.298;9.056;2022-12-18T09:41:17;4.20;;;2.50;;
47589;SDS011;33316;52.298;9.056;2022-12-18T09:43:53;5.10;;;2.30;;
47589;SDS011;33316;52.298;9.056;2022-12-18T09:48:54;2.88;;;2.20;;
47589;SDS011;33316;52.298;9.056;2022-12-18T09:51:26;4.25;;;2.38;;
47589;SDS011;33316;52.298;9.056;2022-12-18T09:53:57;3.63;;;2.00;;
47589;SDS011;33316;52.298;9.056;2022-12-18T09:56:28;4.07;;;2.50;;
47589;SDS011;33316;52.298;9.056;2022-12-18T09:58:58;2.75;;;1.92;;
47589;SDS011;33316;52.298;9.056;2022-12-18T10:01:26;3.00;;;2.10;;
47589;SDS011;33316;52.298;9.056;2022-12-18T10:03:54;3.20;;;2.00;;
47589;SDS011;33316;52.298;9.056;2022-12-18T10:06:23;5.15;;;2.60;;
47589;SDS011;33316;52.298;9.056;2022-12-18T10:08:55;5.07;;;2.72;;
47589;SDS011;33316;52.298;9.056;2022-12-18T10:11:29;3.78;;;2.28;;
47589;SDS011;33316;52.298;9.056;2022-12-18T10:14:05;3.97;;;2.03;;
47589;SDS011;33316;52.298;9.056;2022-12-18T10:16:41;4.00;;;2.33;;
47589;SDS011;33316;52.298;9.056;2022-12-18T10:19:20;4.90;;;2.17;;
47589;SDS011;33316;52.298;9.056;2022-12-18T10:21:57;3.58;;;2.03;;
47589;SDS011;33316;52.298;9.056;2022-12-18T10:24:32;4.15;;;2.60;;
47589;SDS011;33316;52.298;9.056;2022-12-18T10:27:11;4.22;;;2.40;;
47589;SDS011;33316;52.298;9.056;2022-12-18T10:29:41;4.55;;;2.60;;
47589;SDS011;33316;52.298;9.056;2022-12-18T10:32:09;4.45;;;2.33;;
47589;SDS011;33316;52.298;9.056;2022-12-18T10:34:41;5.35;;;2.72;;
47589;SDS011;33316;52.298;9.056;2022-12-18T10:37:12;6.65;;;3.20;;
47589;SDS011;33316;52.298;9.056;2022-12-18T10:39:43;4.43;;;2.65;;
47589;SDS011;33316;52.298;9.056;2022-12-18T10:42:15;4.80;;;2.42;;
47589;SDS011;33316;52.298;9.056;2022-12-18T10:44:44;4.50;;;2.25;;
47589;SDS011;33316;52.298;9.056;2022-12-18T10:47:14;5.55;;;2.17;;
47589;SDS011;33316;52.298;9.056;2022-12-18T10:49:47;6.80;;;2.85;;
47589;SDS011;33316;52.298;9.056;2022-12-18T10:52:17;6.55;;;2.88;;
47589;SDS011;33316;52.298;9.056;2022-12-18T10:54:49;4.75;;;2.55;;
47589;SDS011;33316;52.298;9.056;2022-12-18T10:57:28;4.07;;;2.30;;
47589;SDS011;33316;52.298;9.056;2022-12-18T10:59:58;3.00;;;1.88;;
47589;SDS011;33316;52.298;9.056;2022-12-18T11:02:27;3.55;;;1.88;;
47589;SDS011;33316;52.298;9.056;2022-12-18T11:05:03;3.50;;;2.08;;
47589;SDS011;33316;52.298;9.056;2022-12-18T11:07:49;3.75;;;2.17;;
47589;SDS011;33316;52.298;9.056;2022-12-18T11:10:19;2.35;;;1.92;;
47589;SDS011;33316;52.298;9.056;2022-12-18T11:12:49;3.92;;;2.10;;
47589;SDS011;33316;52.298;9.056;2022-12-18T11:15:20;5.00;;;2.50;;
47589;SDS011;33316;52.298;9.056;2022-12-18T11:17:49;3.83;;;2.60;;
47589;SDS011;33316;52.298;9.056;2022-12-18T11:20:22;5.95;;;2.42;;
47589;SDS011;33316;52.298;9.056;2022-12-18T11:22:56;5.45;;;2.67;;
47589;SDS011;33316;52.298;9.056;2022-12-18T11:25:24;4.50;;;2.70;;
47589;SDS011;33316;52.298;9.056;2022-12-18T11:27:54;4.28;;;2.47;;
47589;SDS011;33316;52.298;9.056;2022-12-18T11:30:23;4.43;;;2.58;;
47589;SDS011;33316;52.298;9.056;2022-12-18T11:32:53;6.13;;;2.22;;
47589;SDS011;33316;52.298;9.056;2022-12-18T11:35:25;3.38;;;2.00;;
47589;SDS011;33316;52.298;9.056;2022-12-18T11:38:12;4.32;;;2.50;;
47589;SDS011;33316;52.298;9.056;2022-12-18T11:40:49;3.50;;;2.10;;
47589;SDS011;33316;52.298;9.056;2022-12-18T11:43:24;3.58;;;2.00;;
47589;SDS011;33316;52.298;9.056;2022-12-18T11:45:54;3.65;;;2.50;;
47589;SDS011;33316;52.298;9.056;2022-12-18T11:48:27;3.70;;;2.22;;
47589;SDS011;33316;52.298;9.056;2022-12-18T11:50:57;4.43;;;1.83;;
47589;SDS011;33316;52.298;9.056;2022-12-18T11:53:27;2.25;;;1.70;;
47589;SDS011;33316;52.298;9.056;2022-12-18T11:56:01;4.30;;;2.15;;
47589;SDS011;33316;52.298;9.056;2022-12-18T11:58:43;4.18;;;2.13;;
47589;SDS011;33316;52.298;9.056;2022-12-18T12:01:16;3.95;;;2.10;;
47589;SDS011;33316;52.298;9.056;2022-12-18T12:04:06;3.33;;;2.40;;
47589;SDS011;33316;52.298;9.056;2022-12-18T12:06:49;4.05;;;2.28;;
47589;SDS011;33316;52.298;9.056;2022-12-18T12:09:22;4.00;;;2.20;;
47589;SDS011;33316;52.298;9.056;2022-12-18T12:12:10;5.45;;;2.58;;
47589;SDS011;33316;52.298;9.056;2022-12-18T12:14:54;3.58;;;2.30;;
47589;SDS011;33316;52.298;9.056;2022-12-18T12:17:31;3.72;;;2.10;;
47589;SDS011;33316;52.298;9.056;2022-12-18T12:20:04;4.35;;;2.15;;
47589;SDS011;33316;52.298;9.056;2022-12-18T12:22:39;4.45;;;2.45;;
47589;SDS011;33316;52.298;9.056;2022-12-18T12:25:19;4.13;;;2.13;;
47589;SDS011;33316;52.298;9.056;2022-12-18T12:27:55;3.53;;;1.98;;
47589;SDS011;33316;52.298;9.056;2022-12-18T12:30:35;3.95;;;2.38;;
47589;SDS011;33316;52.298;9.056;2022-12-18T12:33:13;3.95;;;2.50;;
47589;SDS011;33316;52.298;9.056;2022-12-18T12:35:51;3.67;;;1.77;;
47589;SDS011;33316;52.298;9.056;2022-12-18T12:38:25;3.90;;;2.08;;
47589;SDS011;33316;52.298;9.056;2022-12-18T12:40:58;3.60;;;1.95;;
47589;SDS011;33316;52.298;9.056;2022-12-18T12:43:31;4.22;;;2.13;;
47589;SDS011;33316;52.298;9.056;2022-12-18T12:46:03;4.25;;;2.10;;
47589;SDS011;33316;52.298;9.056;2022-12-18T12:48:35;3.40;;;2.00;;
47589;SDS011;33316;52.298;9.056;2022-12-18T12:51:10;2.88;;;1.83;;
47589;SDS011;33316;52.298;9.056;2022-12-18T12:53:41;3.67;;;2.00;;
47589;SDS011;33316;52.298;9.056;2022-12-18T12:56:09;3.85;;;2.20;;
47589;SDS011;33316;52.298;9.056;2022-12-18T12:58:41;3.60;;;1.83;;
47589;SDS011;33316;52.298;9.056;2022-12-18T13:01:17;4.00;;;2.22;;
47589;SDS011;33316;52.298;9.056;2022-12-18T13:03:55;2.35;;;1.75;;
47589;SDS011;33316;52.298;9.056;2022-12-18T13:06:33;4.10;;;2.00;;
47589;SDS011;33316;52.298;9.056;2022-12-18T13:09:06;2.58;;;1.85;;
47589;SDS011;33316;52.298;9.056;2022-12-18T13:11:36;3.65;;;2.08;;
47589;SDS011;33316;52.298;9.056;2022-12-18T13:14:32;4.63;;;2.00;;
47589;SDS011;33316;52.298;9.056;2022-12-18T13:20:03;3.70;;;1.98;;
47589;SDS011;33316;52.298;9.056;2022-12-18T13:25:03;3.78;;;2.00;;
47589;SDS011;33316;52.298;9.056;2022-12-18T13:30:43;3.90;;;2.15;;
47589;SDS011;33316;52.298;9.056;2022-12-18T13:33:39;3.70;;;2.03;;
47589;SDS011;33316;52.298;9.056;2022-12-18T13:36:15;4.93;;;2.00;;
47589;SDS011;33316;52.298;9.056;2022-12-18T13:45:38;3.58;;;2.10;;
47589;SDS011;33316;52.298;9.056;2022-12-18T13:48:15;4.43;;;2.80;;
47589;SDS011;33316;52.298;9.056;2022-12-18T13:50:59;3.42;;;2.47;;
47589;SDS011;33316;52.298;9.056;2022-12-18T13:53:29;3.35;;;2.00;;
47589;SDS011;33316;52.298;9.056;2022-12-18T13:56:00;4.22;;;2.20;;
47589;SDS011;33316;52.298;9.056;2022-12-18T13:58:28;2.92;;;2.15;;
47589;SDS011;33316;52.298;9.056;2022-12-18T14:00:55;3.95;;;2.20;;
47589;SDS011;33316;52.298;9.056;2022-12-18T14:03:25;3.38;;;2.10;;
47589;SDS011;33316;52.298;9.056;2022-12-18T14:05:54;3.78;;;2.20;;
47589;SDS011;33316;52.298;9.056;2022-12-18T14:08:24;2.90;;;1.80;;
47589;SDS011;33316;52.298;9.056;2022-12-18T14:10:55;3.08;;;1.33;;
47589;SDS011;33316;52.298;9.056;2022-12-18T14:13:24;5.10;;;2.30;;
47589;SDS011;33316;52.298;9.056;2022-12-18T14:15:54;3.83;;;2.25;;
47589;SDS011;33316;52.298;9.056;2022-12-18T14:18:22;3.75;;;2.20;;
47589;SDS011;33316;52.298;9.056;2022-12-18T14:20:52;3.28;;;2.10;;
47589;SDS011;33316;52.298;9.056;2022-12-18T14:23:29;6.13;;;3.03;;
47589;SDS011;33316;52.298;9.056;2022-12-18T14:25:58;6.22;;;3.10;;
47589;SDS011;33316;52.298;9.056;2022-12-18T14:28:26;7.55;;;3.25;;
47589;SDS011;33316;52.298;9.056;2022-12-18T14:30:53;6.28;;;3.40;;
47589;SDS011;33316;52.298;9.056;2022-12-18T14:33:21;4.85;;;2.97;;
47589;SDS011;33316;52.298;9.056;2022-12-18T14:35:54;4.85;;;2.58;;
47589;SDS011;33316;52.298;9.056;2022-12-18T14:38:26;3.50;;;2.30;;
47589;SDS011;33316;52.298;9.056;2022-12-18T14:40:58;5.82;;;2.47;;
47589;SDS011;33316;52.298;9.056;2022-12-18T14:43:27;5.55;;;3.13;;
47589;SDS011;33316;52.298;9.056;2022-12-18T14:45:56;8.50;;;3.20;;
47589;SDS011;33316;52.298;9.056;2022-12-18T14:48:30;4.10;;;2.15;;
47589;SDS011;33316;52.298;9.056;2022-12-18T14:51:02;4.57;;;2.38;;
47589;SDS011;33316;52.298;9.056;2022-12-18T14:53:32;4.20;;;2.30;;
47589;SDS011;33316;52.298;9.056;2022-12-18T14:56:04;3.28;;;2.45;;
47589;SDS011;33316;52.298;9.056;2022-12-18T14:58:44;3.15;;;2.22;;
47589;SDS011;33316;52.298;9.056;2022-12-18T15:01:17;5.57;;;2.45;;
47589;SDS011;33316;52.298;9.056;2022-12-18T15:03:49;3.30;;;2.30;;
47589;SDS011;33316;52.298;9.056;2022-12-18T15:06:17;4.25;;;2.47;;
47589;SDS011;33316;52.298;9.056;2022-12-18T15:08:51;4.03;;;2.28;;
47589;SDS011;33316;52.298;9.056;2022-12-18T15:11:27;3.92;;;2.50;;
47589;SDS011;33316;52.298;9.056;2022-12-18T15:13:57;4.47;;;3.03;;
47589;SDS011;33316;52.298;9.056;2022-12-18T15:16:24;4.00;;;2.75;;
47589;SDS011;33316;52.298;9.056;2022-12-18T15:18:51;5.43;;;2.88;;
47589;SDS011;33316;52.298;9.056;2022-12-18T15:21:19;3.85;;;2.40;;
47589;SDS011;33316;52.298;9.056;2022-12-18T15:23:48;3.70;;;2.45;;
47589;SDS011;33316;52.298;9.056;2022-12-18T15:26:17;4.35;;;2.33;;
47589;SDS011;33316;52.298;9.056;2022-12-18T15:28:47;3.22;;;2.00;;